sensor_id;sensor_type;location;lat;lon;timestamp;pressure;altitude;pressure_sealevel;temperature;humidity
48926;BME280;39838;59.938;30.642;2023-04-08T00:01:00;102016.28;;;2.56;50.87
48926;BME280;39838;59.938;30.642;2023-04-08T00:03:28;102024.03;;;2.57;50.77
48926;BME280;39838;59.938;30.642;2023-04-08T00:05:56;102022.47;;;2.59;50.65
48926;BME280;39838;59.938;30.642;2023-04-08T00:08:25;102028.50;;;2.60;50.79
48926;BME280;39838;59.938;30.642;2023-04-08T00:10:52;102019.72;;;2.56;50.60
48926;BME280;39838;59.938;30.642;2023-04-08T00:13:19;102026.59;;;2.57;50.76
48926;BME280;39838;59.938;30.642;2023-04-08T00:15:47;102018.03;;;2.57;50.44
48926;BME280;39838;59.938;30.642;2023-04-08T00:18:15;102022.13;;;2.53;50.66
48926;BME280;39838;59.938;30.642;2023-04-08T00:20:43;102019.63;;;2.55;50.82
48926;BME280;39838;59.938;30.642;2023-04-08T00:23:11;102015.38;;;2.55;50.88
48926;BME280;39838;59.938;30.642;2023-04-08T00:25:39;102022.28;;;2.56;50.72
48926;BME280;39838;59.938;30.642;2023-04-08T00:28:06;102017.78;;;2.52;50.77
48926;BME280;39838;59.938;30.642;2023-04-08T00:30:33;102024.50;;;2.50;50.80
48926;BME280;39838;59.938;30.642;2023-04-08T00:33:00;102016.91;;;2.52;50.57
48926;BME280;39838;59.938;30.642;2023-04-08T00:35:28;102019.28;;;2.49;50.70
48926;BME280;39838;59.938;30.642;2023-04-08T00:37:55;102014.97;;;2.47;51.05
48926;BME280;39838;59.938;30.642;2023-04-08T00:40:23;102015.84;;;2.48;50.81
48926;BME280;39838;59.938;30.642;2023-04-08T00:42:50;102023.38;;;2.45;50.90
48926;BME280;39838;59.938;30.642;2023-04-08T00:45:17;102018.84;;;2.41;50.96
48926;BME280;39838;59.938;30.642;2023-04-08T00:47:45;102021.25;;;2.38;51.20
48926;BME280;39838;59.938;30.642;2023-04-08T00:50:17;102021.06;;;2.35;51.18
48926;BME280;39838;59.938;30.642;2023-04-08T00:52:44;102021.88;;;2.34;51.00
48926;BME280;39838;59.938;30.642;2023-04-08T00:55:12;102018.41;;;2.33;51.33
48926;BME280;39838;59.938;30.642;2023-04-08T00:57:40;102015.84;;;2.33;51.07
48926;BME280;39838;59.938;30.642;2023-04-08T01:00:09;102017.34;;;2.30;51.10
48926;BME280;39838;59.938;30.642;2023-04-08T01:02:44;102013.03;;;2.29;51.10
48926;BME280;39838;59.938;30.642;2023-04-08T01:05:15;102009.41;;;2.25;51.22
48926;BME280;39838;59.938;30.642;2023-04-08T01:07:46;102014.00;;;2.31;51.42
48926;BME280;39838;59.938;30.642;2023-04-08T01:10:16;102015.78;;;2.32;51.26
48926;BME280;39838;59.938;30.642;2023-04-08T01:12:49;102019.13;;;2.31;51.26
48926;BME280;39838;59.938;30.642;2023-04-08T01:15:18;102013.09;;;2.30;51.29
48926;BME280;39838;59.938;30.642;2023-04-08T01:17:46;101996.31;;;2.21;51.47
48926;BME280;39838;59.938;30.642;2023-04-08T01:20:15;101980.41;;;2.11;51.24
48926;BME280;39838;59.938;30.642;2023-04-08T01:22:54;101980.28;;;2.10;51.14
48926;BME280;39838;59.938;30.642;2023-04-08T01:25:28;102006.84;;;2.25;51.38
48926;BME280;39838;59.938;30.642;2023-04-08T01:27:59;102006.94;;;2.27;51.30
48926;BME280;39838;59.938;30.642;2023-04-08T01:30:28;101993.94;;;2.24;51.20
48926;BME280;39838;59.938;30.642;2023-04-08T01:32:57;102011.25;;;2.28;51.42
48926;BME280;39838;59.938;30.642;2023-04-08T01:35:25;102004.44;;;2.28;51.24
48926;BME280;39838;59.938;30.642;2023-04-08T01:37:53;102003.41;;;2.25;51.62
48926;BME280;39838;59.938;30.642;2023-04-08T01:40:21;101999.06;;;2.24;51.60
48926;BME280;39838;59.938;30.642;2023-04-08T01:42:50;101967.84;;;2.01;51.56
48926;BME280;39838;59.938;30.642;2023-04-08T01:45:21;101992.50;;;2.14;51.83
48926;BME280;39838;59.938;30.642;2023-04-08T01:47:49;101996.59;;;2.10;51.76
48926;BME280;39838;59.938;30.642;2023-04-08T01:50:18;102000.81;;;2.10;51.90
48926;BME280;39838;59.938;30.642;2023-04-08T01:52:48;101993.75;;;2.06;51.92
48926;BME280;39838;59.938;30.642;2023-04-08T01:55:17;101997.28;;;2.08;52.14
48926;BME280;39838;59.938;30.642;2023-04-08T01:57:48;101954.59;;;1.79;52.27
48926;BME280;39838;59.938;30.642;2023-04-08T02:00:19;101992.59;;;2.01;52.21
48926;BME280;39838;59.938;30.642;2023-04-08T02:02:48;101999.25;;;1.97;52.35
48926;BME280;39838;59.938;30.642;2023-04-08T02:05:16;101997.28;;;1.93;52.47
48926;BME280;39838;59.938;30.642;2023-04-08T02:07:44;101989.44;;;1.90;52.28
48926;BME280;39838;59.938;30.642;2023-04-08T02:10:11;101989.31;;;1.88;52.64
48926;BME280;39838;59.938;30.642;2023-04-08T02:12:38;101992.75;;;1.89;52.44
48926;BME280;39838;59.938;30.642;2023-04-08T02:15:07;101987.53;;;1.87;52.54
48926;BME280;39838;59.938;30.642;2023-04-08T02:17:40;101981.25;;;1.82;52.61
48926;BME280;39838;59.938;30.642;2023-04-08T02:20:15;101989.66;;;1.80;52.75
48926;BME280;39838;59.938;30.642;2023-04-08T02:22:47;101989.75;;;1.81;52.73
48926;BME280;39838;59.938;30.642;2023-04-08T02:25:17;101992.50;;;1.84;52.55
48926;BME280;39838;59.938;30.642;2023-04-08T02:27:48;101991.78;;;1.87;52.52
48926;BME280;39838;59.938;30.642;2023-04-08T02:30:17;101983.06;;;1.83;52.51
48926;BME280;39838;59.938;30.642;2023-04-08T02:32:45;101993.56;;;1.88;52.59
48926;BME280;39838;59.938;30.642;2023-04-08T02:35:15;101988.25;;;1.85;52.64
48926;BME280;39838;59.938;30.642;2023-04-08T02:37:44;101983.31;;;1.88;52.10
48926;BME280;39838;59.938;30.642;2023-04-08T02:40:22;101978.97;;;1.87;52.35
48926;BME280;39838;59.938;30.642;2023-04-08T02:42:50;101985.94;;;1.89;52.27
48926;BME280;39838;59.938;30.642;2023-04-08T02:45:17;101977.22;;;1.86;52.43
48926;BME280;39838;59.938;30.642;2023-04-08T02:47:44;101980.28;;;1.80;52.57
48926;BME280;39838;59.938;30.642;2023-04-08T02:50:12;101988.78;;;1.79;52.93
48926;BME280;39838;59.938;30.642;2023-04-08T02:52:40;101984.00;;;1.71;52.49
48926;BME280;39838;59.938;30.642;2023-04-08T02:55:09;101978.22;;;1.60;52.91
48926;BME280;39838;59.938;30.642;2023-04-08T02:57:38;101967.53;;;1.52;53.19
48926;BME280;39838;59.938;30.642;2023-04-08T03:00:07;101984.59;;;1.52;53.36
48926;BME280;39838;59.938;30.642;2023-04-08T03:02:34;101980.94;;;1.48;52.92
48926;BME280;39838;59.938;30.642;2023-04-08T03:05:01;101978.38;;;1.48;53.42
48926;BME280;39838;59.938;30.642;2023-04-08T03:07:30;101978.66;;;1.53;53.31
48926;BME280;39838;59.938;30.642;2023-04-08T03:09:58;101974.50;;;1.55;53.29
48926;BME280;39838;59.938;30.642;2023-04-08T03:12:25;101977.19;;;1.56;53.16
48926;BME280;39838;59.938;30.642;2023-04-08T03:14:53;101974.78;;;1.59;53.30
48926;BME280;39838;59.938;30.642;2023-04-08T03:17:20;101979.13;;;1.60;53.27
48926;BME280;39838;59.938;30.642;2023-04-08T03:19:47;101977.19;;;1.56;53.41
48926;BME280;39838;59.938;30.642;2023-04-08T03:22:16;101967.81;;;1.57;53.35
48926;BME280;39838;59.938;30.642;2023-04-08T03:24:43;101970.97;;;1.53;53.78
48926;BME280;39838;59.938;30.642;2023-04-08T03:27:11;101974.34;;;1.52;53.48
48926;BME280;39838;59.938;30.642;2023-04-08T03:29:39;101980.06;;;1.48;53.42
48926;BME280;39838;59.938;30.642;2023-04-08T03:32:06;101974.69;;;1.43;53.58
48926;BME280;39838;59.938;30.642;2023-04-08T03:34:33;101974.47;;;1.40;54.08
48926;BME280;39838;59.938;30.642;2023-04-08T03:37:00;101971.31;;;1.44;54.06
48926;BME280;39838;59.938;30.642;2023-04-08T03:39:28;101976.31;;;1.56;53.78
48926;BME280;39838;59.938;30.642;2023-04-08T03:41:55;101974.94;;;1.62;53.66
48926;BME280;39838;59.938;30.642;2023-04-08T03:44:25;101982.03;;;1.67;53.82
48926;BME280;39838;59.938;30.642;2023-04-08T03:46:53;101983.22;;;1.72;53.54
48926;BME280;39838;59.938;30.642;2023-04-08T03:49:20;101978.25;;;1.75;53.60
48926;BME280;39838;59.938;30.642;2023-04-08T03:51:47;101981.00;;;1.78;53.52
48926;BME280;39838;59.938;30.642;2023-04-08T03:54:14;101979.19;;;1.90;53.45
48926;BME280;39838;59.938;30.642;2023-04-08T03:56:41;101980.75;;;2.03;53.16
48926;BME280;39838;59.938;30.642;2023-04-08T03:59:08;101978.44;;;2.07;53.19
48926;BME280;39838;59.938;30.642;2023-04-08T04:01:37;101978.09;;;2.01;53.32
48926;BME280;39838;59.938;30.642;2023-04-08T04:04:04;101980.56;;;2.00;53.42
48926;BME280;39838;59.938;30.642;2023-04-08T04:06:31;101979.69;;;1.99;53.49
48926;BME280;39838;59.938;30.642;2023-04-08T04:08:58;101980.84;;;2.04;53.39
48926;BME280;39838;59.938;30.642;2023-04-08T04:11:25;101990.66;;;2.11;53.54
48926;BME280;39838;59.938;30.642;2023-04-08T04:13:52;101978.28;;;2.19;53.67
48926;BME280;39838;59.938;30.642;2023-04-08T04:16:19;101980.75;;;2.32;53.16
48926;BME280;39838;59.938;30.642;2023-04-08T04:18:48;101983.22;;;2.45;52.80
48926;BME280;39838;59.938;30.642;2023-04-08T04:21:15;101983.00;;;2.57;52.64
48926;BME280;39838;59.938;30.642;2023-04-08T04:23:42;101985.69;;;2.75;52.56
48926;BME280;39838;59.938;30.642;2023-04-08T04:26:09;101985.31;;;2.84;52.12
48926;BME280;39838;59.938;30.642;2023-04-08T04:28:37;101978.13;;;2.93;52.00
48926;BME280;39838;59.938;30.642;2023-04-08T04:31:04;101984.63;;;3.03;51.58
48926;BME280;39838;59.938;30.642;2023-04-08T04:33:31;101981.66;;;3.11;51.58
48926;BME280;39838;59.938;30.642;2023-04-08T04:36:00;101978.63;;;3.18;51.44
48926;BME280;39838;59.938;30.642;2023-04-08T04:38:27;101986.03;;;3.28;51.29
48926;BME280;39838;59.938;30.642;2023-04-08T04:40:54;101976.34;;;3.39;51.30
48926;BME280;39838;59.938;30.642;2023-04-08T04:43:22;101979.31;;;3.47;50.95
48926;BME280;39838;59.938;30.642;2023-04-08T04:45:49;101977.06;;;3.53;50.78
48926;BME280;39838;59.938;30.642;2023-04-08T04:48:17;101973.34;;;3.64;50.67
48926;BME280;39838;59.938;30.642;2023-04-08T04:50:44;101973.81;;;3.73;50.43
48926;BME280;39838;59.938;30.642;2023-04-08T04:53:12;101974.28;;;3.82;50.25
48926;BME280;39838;59.938;30.642;2023-04-08T04:55:39;101978.34;;;3.95;50.12
48926;BME280;39838;59.938;30.642;2023-04-08T04:58:06;101971.16;;;4.06;50.44
48926;BME280;39838;59.938;30.642;2023-04-08T05:00:33;101975.00;;;4.14;49.94
48926;BME280;39838;59.938;30.642;2023-04-08T05:03:01;101980.53;;;4.22;49.55
48926;BME280;39838;59.938;30.642;2023-04-08T05:05:28;101974.13;;;4.31;49.46
48926;BME280;39838;59.938;30.642;2023-04-08T05:07:55;101976.94;;;4.36;49.90
48926;BME280;39838;59.938;30.642;2023-04-08T05:10:23;101985.53;;;4.36;49.40
48926;BME280;39838;59.938;30.642;2023-04-08T05:12:51;101977.19;;;4.41;49.58
48926;BME280;39838;59.938;30.642;2023-04-08T05:15:18;101975.03;;;4.50;49.70
48926;BME280;39838;59.938;30.642;2023-04-08T05:17:46;101978.31;;;4.65;48.72
48926;BME280;39838;59.938;30.642;2023-04-08T05:20:13;101982.13;;;4.73;48.50
48926;BME280;39838;59.938;30.642;2023-04-08T05:22:40;101983.41;;;4.81;48.62
48926;BME280;39838;59.938;30.642;2023-04-08T05:25:10;101977.03;;;4.92;48.26
48926;BME280;39838;59.938;30.642;2023-04-08T05:27:39;101976.50;;;5.00;48.47
48926;BME280;39838;59.938;30.642;2023-04-08T05:30:07;101980.13;;;5.03;47.90
48926;BME280;39838;59.938;30.642;2023-04-08T05:32:35;101978.50;;;5.05;48.75
48926;BME280;39838;59.938;30.642;2023-04-08T05:35:02;101982.69;;;5.03;48.15
48926;BME280;39838;59.938;30.642;2023-04-08T05:37:29;101974.38;;;5.09;47.78
48926;BME280;39838;59.938;30.642;2023-04-08T05:39:56;101977.41;;;5.19;47.86
48926;BME280;39838;59.938;30.642;2023-04-08T05:42:23;101963.94;;;5.25;48.30
48926;BME280;39838;59.938;30.642;2023-04-08T05:44:53;101973.84;;;5.35;47.60
48926;BME280;39838;59.938;30.642;2023-04-08T05:47:20;101975.88;;;5.42;47.79
48926;BME280;39838;59.938;30.642;2023-04-08T05:49:49;101978.72;;;5.48;47.48
48926;BME280;39838;59.938;30.642;2023-04-08T05:52:17;101974.59;;;5.52;47.24
48926;BME280;39838;59.938;30.642;2023-04-08T05:54:44;101981.81;;;5.61;47.45
48926;BME280;39838;59.938;30.642;2023-04-08T05:57:11;101970.22;;;5.70;47.26
48926;BME280;39838;59.938;30.642;2023-04-08T05:59:38;101981.09;;;5.83;46.93
48926;BME280;39838;59.938;30.642;2023-04-08T06:02:07;101981.31;;;5.89;46.78
48926;BME280;39838;59.938;30.642;2023-04-08T06:04:34;101982.63;;;5.98;46.60
48926;BME280;39838;59.938;30.642;2023-04-08T06:07:01;101973.81;;;5.93;46.56
48926;BME280;39838;59.938;30.642;2023-04-08T06:09:34;101984.06;;;5.92;46.83
48926;BME280;39838;59.938;30.642;2023-04-08T06:12:01;101979.22;;;5.99;46.79
48926;BME280;39838;59.938;30.642;2023-04-08T06:14:28;101986.34;;;6.05;46.44
48926;BME280;39838;59.938;30.642;2023-04-08T06:16:55;101971.13;;;6.11;46.07
48926;BME280;39838;59.938;30.642;2023-04-08T06:19:24;101983.63;;;6.23;46.31
48926;BME280;39838;59.938;30.642;2023-04-08T06:21:51;101979.69;;;6.31;45.93
48926;BME280;39838;59.938;30.642;2023-04-08T06:24:23;101985.78;;;6.33;45.79
48926;BME280;39838;59.938;30.642;2023-04-08T06:26:51;101983.41;;;6.38;45.69
48926;BME280;39838;59.938;30.642;2023-04-08T06:29:19;101984.53;;;6.44;45.64
48926;BME280;39838;59.938;30.642;2023-04-08T06:31:46;101984.00;;;6.53;45.57
48926;BME280;39838;59.938;30.642;2023-04-08T06:34:13;101975.63;;;6.59;45.37
48926;BME280;39838;59.938;30.642;2023-04-08T06:36:42;101972.56;;;6.69;45.20
48926;BME280;39838;59.938;30.642;2023-04-08T06:39:09;101979.25;;;6.84;45.16
48926;BME280;39838;59.938;30.642;2023-04-08T06:41:36;101985.00;;;7.00;44.66
48926;BME280;39838;59.938;30.642;2023-04-08T06:44:03;101980.28;;;7.12;44.77
48926;BME280;39838;59.938;30.642;2023-04-08T06:46:30;101976.50;;;7.26;44.61
48926;BME280;39838;59.938;30.642;2023-04-08T06:48:57;101977.00;;;7.40;44.23
48926;BME280;39838;59.938;30.642;2023-04-08T06:51:25;101979.22;;;7.53;43.86
48926;BME280;39838;59.938;30.642;2023-04-08T06:53:54;101974.97;;;7.55;44.04
48926;BME280;39838;59.938;30.642;2023-04-08T06:56:21;101982.06;;;7.61;43.79
48926;BME280;39838;59.938;30.642;2023-04-08T06:58:50;101977.81;;;7.63;43.59
48926;BME280;39838;59.938;30.642;2023-04-08T07:01:18;101975.44;;;7.69;43.38
48926;BME280;39838;59.938;30.642;2023-04-08T07:03:45;101974.56;;;7.69;43.17
48926;BME280;39838;59.938;30.642;2023-04-08T07:06:12;101978.91;;;7.70;42.99
48926;BME280;39838;59.938;30.642;2023-04-08T07:08:39;101981.50;;;7.70;43.61
48926;BME280;39838;59.938;30.642;2023-04-08T07:11:08;101977.78;;;7.61;43.34
48926;BME280;39838;59.938;30.642;2023-04-08T07:13:35;101974.19;;;7.58;43.92
48926;BME280;39838;59.938;30.642;2023-04-08T07:16:03;101971.78;;;7.62;43.79
48926;BME280;39838;59.938;30.642;2023-04-08T07:18:30;101962.44;;;7.66;43.37
48926;BME280;39838;59.938;30.642;2023-04-08T07:20:57;101967.94;;;7.77;43.61
48926;BME280;39838;59.938;30.642;2023-04-08T07:23:25;101973.50;;;7.87;43.55
48926;BME280;39838;59.938;30.642;2023-04-08T07:25:52;101969.31;;;7.91;43.39
48926;BME280;39838;59.938;30.642;2023-04-08T07:28:21;101962.66;;;7.99;43.26
48926;BME280;39838;59.938;30.642;2023-04-08T07:30:48;101962.09;;;8.06;43.21
48926;BME280;39838;59.938;30.642;2023-04-08T07:33:15;101963.97;;;8.12;43.22
48926;BME280;39838;59.938;30.642;2023-04-08T07:35:42;101964.03;;;8.13;43.14
48926;BME280;39838;59.938;30.642;2023-04-08T07:38:09;101968.38;;;8.14;42.96
48926;BME280;39838;59.938;30.642;2023-04-08T07:40:38;101970.09;;;8.14;42.81
48926;BME280;39838;59.938;30.642;2023-04-08T07:43:05;101969.47;;;8.21;42.53
48926;BME280;39838;59.938;30.642;2023-04-08T07:45:35;101964.38;;;8.24;42.56
48926;BME280;39838;59.938;30.642;2023-04-08T07:48:02;101968.97;;;8.33;42.13
48926;BME280;39838;59.938;30.642;2023-04-08T07:50:29;101965.69;;;8.37;42.19
48926;BME280;39838;59.938;30.642;2023-04-08T07:52:56;101961.59;;;8.43;42.48
48926;BME280;39838;59.938;30.642;2023-04-08T07:55:24;101966.16;;;8.52;42.04
48926;BME280;39838;59.938;30.642;2023-04-08T07:57:51;101964.13;;;8.69;42.37
48926;BME280;39838;59.938;30.642;2023-04-08T08:00:18;101957.59;;;8.82;41.46
48926;BME280;39838;59.938;30.642;2023-04-08T08:02:47;101964.81;;;8.92;41.49
48926;BME280;39838;59.938;30.642;2023-04-08T08:05:14;101965.88;;;8.98;41.15
48926;BME280;39838;59.938;30.642;2023-04-08T08:07:42;101964.16;;;8.99;41.03
48926;BME280;39838;59.938;30.642;2023-04-08T08:10:09;101968.59;;;9.03;41.37
48926;BME280;39838;59.938;30.642;2023-04-08T08:12:37;101959.25;;;9.08;40.95
48926;BME280;39838;59.938;30.642;2023-04-08T08:15:05;101959.31;;;9.10;41.23
48926;BME280;39838;59.938;30.642;2023-04-08T08:17:33;101960.22;;;9.12;40.54
48926;BME280;39838;59.938;30.642;2023-04-08T08:20:01;101961.19;;;9.15;40.58
48926;BME280;39838;59.938;30.642;2023-04-08T08:22:29;101957.88;;;9.21;40.55
48926;BME280;39838;59.938;30.642;2023-04-08T08:24:56;101951.88;;;9.22;39.85
48926;BME280;39838;59.938;30.642;2023-04-08T08:27:24;101951.16;;;9.27;39.93
48926;BME280;39838;59.938;30.642;2023-04-08T08:29:51;101954.72;;;9.31;40.08
48926;BME280;39838;59.938;30.642;2023-04-08T08:32:18;101951.25;;;9.30;39.74
48926;BME280;39838;59.938;30.642;2023-04-08T08:34:45;101948.84;;;9.37;40.39
48926;BME280;39838;59.938;30.642;2023-04-08T08:37:14;101953.25;;;9.41;39.83
48926;BME280;39838;59.938;30.642;2023-04-08T08:39:41;101949.75;;;9.39;39.99
48926;BME280;39838;59.938;30.642;2023-04-08T08:42:18;101952.31;;;9.37;40.37
48926;BME280;39838;59.938;30.642;2023-04-08T08:44:46;101945.41;;;9.38;39.81
48926;BME280;39838;59.938;30.642;2023-04-08T08:47:13;101943.84;;;9.44;39.98
48926;BME280;39838;59.938;30.642;2023-04-08T08:49:40;101944.13;;;9.55;39.60
48926;BME280;39838;59.938;30.642;2023-04-08T08:52:08;101943.72;;;9.71;40.01
48926;BME280;39838;59.938;30.642;2023-04-08T08:54:37;101939.88;;;9.90;40.01
48926;BME280;39838;59.938;30.642;2023-04-08T08:57:04;101943.75;;;10.07;39.78
48926;BME280;39838;59.938;30.642;2023-04-08T08:59:31;101941.50;;;10.21;39.32
48926;BME280;39838;59.938;30.642;2023-04-08T09:01:59;101934.94;;;10.34;38.89
48926;BME280;39838;59.938;30.642;2023-04-08T09:04:26;101934.31;;;10.44;39.04
48926;BME280;39838;59.938;30.642;2023-04-08T09:07:08;101927.44;;;10.48;38.70
48926;BME280;39838;59.938;30.642;2023-04-08T09:09:48;101934.47;;;10.52;38.70
48926;BME280;39838;59.938;30.642;2023-04-08T09:12:16;101930.16;;;10.52;38.78
48926;BME280;39838;59.938;30.642;2023-04-08T09:14:43;101932.75;;;10.52;39.05
48926;BME280;39838;59.938;30.642;2023-04-08T09:17:11;101928.31;;;10.48;38.50
48926;BME280;39838;59.938;30.642;2023-04-08T09:19:38;101929.34;;;10.55;38.41
48926;BME280;39838;59.938;30.642;2023-04-08T09:22:06;101932.88;;;10.57;38.25
48926;BME280;39838;59.938;30.642;2023-04-08T09:24:34;101926.84;;;10.58;37.96
48926;BME280;39838;59.938;30.642;2023-04-08T09:27:03;101936.44;;;10.62;37.91
48926;BME280;39838;59.938;30.642;2023-04-08T09:29:31;101927.06;;;10.70;37.86
48926;BME280;39838;59.938;30.642;2023-04-08T09:32:00;101929.00;;;10.77;37.82
48926;BME280;39838;59.938;30.642;2023-04-08T09:34:28;101921.38;;;10.86;37.54
48926;BME280;39838;59.938;30.642;2023-04-08T09:36:56;101921.56;;;10.96;37.56
48926;BME280;39838;59.938;30.642;2023-04-08T09:39:23;101927.81;;;11.04;37.43
48926;BME280;39838;59.938;30.642;2023-04-08T09:41:51;101919.97;;;11.02;37.64
48926;BME280;39838;59.938;30.642;2023-04-08T09:44:21;101920.78;;;10.98;37.14
48926;BME280;39838;59.938;30.642;2023-04-08T09:46:55;101904.97;;;10.89;37.29
48926;BME280;39838;59.938;30.642;2023-04-08T09:49:28;101913.59;;;10.86;37.38
48926;BME280;39838;59.938;30.642;2023-04-08T09:52:03;101913.59;;;10.86;37.01
48926;BME280;39838;59.938;30.642;2023-04-08T09:54:38;101912.69;;;10.84;37.53
48926;BME280;39838;59.938;30.642;2023-04-08T09:57:09;101907.44;;;10.83;36.97
48926;BME280;39838;59.938;30.642;2023-04-08T09:59:44;101911.09;;;10.91;37.21
48926;BME280;39838;59.938;30.642;2023-04-08T10:02:16;101906.13;;;11.03;36.89
48926;BME280;39838;59.938;30.642;2023-04-08T10:04:47;101902.00;;;11.13;36.88
48926;BME280;39838;59.938;30.642;2023-04-08T10:07:16;101903.91;;;11.23;36.38
48926;BME280;39838;59.938;30.642;2023-04-08T10:09:44;101895.25;;;11.23;36.53
48926;BME280;39838;59.938;30.642;2023-04-08T10:12:11;101902.41;;;11.34;36.67
48926;BME280;39838;59.938;30.642;2023-04-08T10:14:39;101905.00;;;11.34;36.43
48926;BME280;39838;59.938;30.642;2023-04-08T10:17:25;101900.41;;;11.21;36.54
48926;BME280;39838;59.938;30.642;2023-04-08T10:19:53;101897.69;;;11.15;36.55
48926;BME280;39838;59.938;30.642;2023-04-08T10:22:47;101900.41;;;11.21;36.79
48926;BME280;39838;59.938;30.642;2023-04-08T10:25:32;101900.41;;;11.21;36.54
48926;BME280;39838;59.938;30.642;2023-04-08T10:28:00;101898.84;;;11.29;36.27
48926;BME280;39838;59.938;30.642;2023-04-08T10:30:46;101903.25;;;11.32;36.69
48926;BME280;39838;59.938;30.642;2023-04-08T10:33:15;101896.16;;;11.25;37.84
48926;BME280;39838;59.938;30.642;2023-04-08T10:35:45;101898.09;;;11.35;36.35
48926;BME280;39838;59.938;30.642;2023-04-08T10:38:13;101905.00;;;11.34;36.29
48926;BME280;39838;59.938;30.642;2023-04-08T10:40:41;101891.28;;;11.43;36.42
48926;BME280;39838;59.938;30.642;2023-04-08T10:43:09;101897.66;;;11.59;35.84
48926;BME280;39838;59.938;30.642;2023-04-08T10:45:37;101888.25;;;11.65;35.53
48926;BME280;39838;59.938;30.642;2023-04-08T10:48:11;101896.84;;;11.61;35.74
48926;BME280;39838;59.938;30.642;2023-04-08T10:50:40;101887.31;;;11.62;35.92
48926;BME280;39838;59.938;30.642;2023-04-08T10:53:07;101892.41;;;11.56;35.84
48926;BME280;39838;59.938;30.642;2023-04-08T10:55:35;101891.41;;;11.49;35.68
48926;BME280;39838;59.938;30.642;2023-04-08T10:58:07;101875.78;;;11.47;35.48
48926;BME280;39838;59.938;30.642;2023-04-08T11:00:36;101876.00;;;11.60;35.33
48926;BME280;39838;59.938;30.642;2023-04-08T11:03:05;101877.09;;;11.74;35.17
48926;BME280;39838;59.938;30.642;2023-04-08T11:05:33;101877.28;;;11.83;35.10
48926;BME280;39838;59.938;30.642;2023-04-08T11:08:03;101878.25;;;11.90;35.22
48926;BME280;39838;59.938;30.642;2023-04-08T11:10:35;101873.00;;;11.87;35.06
48926;BME280;39838;59.938;30.642;2023-04-08T11:13:05;101847.59;;;11.75;35.46
48926;BME280;39838;59.938;30.642;2023-04-08T11:15:34;101879.03;;;11.84;35.74
48926;BME280;39838;59.938;30.642;2023-04-08T11:18:02;101875.47;;;11.79;35.35
48926;BME280;39838;59.938;30.642;2023-04-08T11:20:29;101865.94;;;11.80;35.31
48926;BME280;39838;59.938;30.642;2023-04-08T11:22:59;101868.66;;;11.86;35.15
48926;BME280;39838;59.938;30.642;2023-04-08T11:25:28;101864.38;;;11.91;34.55
48926;BME280;39838;59.938;30.642;2023-04-08T11:27:55;101867.97;;;11.97;34.67
48926;BME280;39838;59.938;30.642;2023-04-08T11:30:23;101862.72;;;11.94;34.65
48926;BME280;39838;59.938;30.642;2023-04-08T11:32:50;101862.56;;;11.85;34.65
48926;BME280;39838;59.938;30.642;2023-04-08T11:35:17;101863.47;;;11.86;34.79
48926;BME280;39838;59.938;30.642;2023-04-08T11:37:46;101856.56;;;11.89;34.86
48926;BME280;39838;59.938;30.642;2023-04-08T11:40:19;101842.56;;;11.84;34.63
48926;BME280;39838;59.938;30.642;2023-04-08T11:42:50;101855.94;;;12.06;34.03
48926;BME280;39838;59.938;30.642;2023-04-08T11:45:18;101852.63;;;12.16;34.13
48926;BME280;39838;59.938;30.642;2023-04-08T11:47:47;101860.53;;;12.22;34.59
48926;BME280;39838;59.938;30.642;2023-04-08T11:50:22;101851.84;;;12.23;34.37
48926;BME280;39838;59.938;30.642;2023-04-08T11:52:50;101850.13;;;12.22;34.23
48926;BME280;39838;59.938;30.642;2023-04-08T11:55:22;101850.13;;;12.22;34.07
48926;BME280;39838;59.938;30.642;2023-04-08T11:57:51;101842.28;;;12.20;34.22
48926;BME280;39838;59.938;30.642;2023-04-08T12:00:19;101843.16;;;12.21;34.21
48926;BME280;39838;59.938;30.642;2023-04-08T12:02:47;101850.13;;;12.22;34.07
48926;BME280;39838;59.938;30.642;2023-04-08T12:05:15;101835.16;;;12.10;34.19
48926;BME280;39838;59.938;30.642;2023-04-08T12:07:42;101843.00;;;12.12;34.28
48926;BME280;39838;59.938;30.642;2023-04-08T12:10:10;101842.19;;;12.13;33.93
48926;BME280;39838;59.938;30.642;2023-04-08T12:12:38;101843.84;;;12.09;33.80
48926;BME280;39838;59.938;30.642;2023-04-08T12:15:08;101837.69;;;12.06;33.51
48926;BME280;39838;59.938;30.642;2023-04-08T12:17:35;101833.34;;;12.05;33.36
48926;BME280;39838;59.938;30.642;2023-04-08T12:20:04;101824.63;;;12.02;33.30
48926;BME280;39838;59.938;30.642;2023-04-08T12:22:31;101832.44;;;12.02;33.10
48926;BME280;39838;59.938;30.642;2023-04-08T12:24:58;101826.38;;;12.02;33.32
48926;BME280;39838;59.938;30.642;2023-04-08T12:27:29;101829.97;;;12.10;33.33
48926;BME280;39838;59.938;30.642;2023-04-08T12:29:58;101822.31;;;12.21;33.36
48926;BME280;39838;59.938;30.642;2023-04-08T12:32:26;101824.06;;;12.22;33.64
48926;BME280;39838;59.938;30.642;2023-04-08T12:34:54;101821.53;;;12.26;33.80
48926;BME280;39838;59.938;30.642;2023-04-08T12:37:21;101822.78;;;12.56;34.06
48926;BME280;39838;59.938;30.642;2023-04-08T12:39:48;101825.97;;;13.05;34.43
48926;BME280;39838;59.938;30.642;2023-04-08T12:42:21;101821.22;;;13.49;33.96
48926;BME280;39838;59.938;30.642;2023-04-08T12:44:48;101819.75;;;13.82;33.36
48926;BME280;39838;59.938;30.642;2023-04-08T12:47:16;101818.22;;;14.11;33.48
48926;BME280;39838;59.938;30.642;2023-04-08T12:49:44;101807.75;;;14.10;32.68
48926;BME280;39838;59.938;30.642;2023-04-08T12:52:11;101812.94;;;14.04;32.07
48926;BME280;39838;59.938;30.642;2023-04-08T12:54:38;101811.97;;;13.91;31.77